Wetterdaten: Januar 2009
Datum Temp Feuchte Luftdruck Regen Wind Richtung Sonnenschein UV Solar Windben
01.01.2009 -4,0 C 96 % 1029,2 hPa 0,0 l/m 0,4 km/h W 0,00 h 0,0 UV-I 20 W/m 2,4 km/h
02.01.2009 -5,5 C 94 % 1029,5 hPa 0,0 l/m 1,3 km/h N-NO 0,00 h 0,0 UV-I 14 W/m 3,6 km/h
03.01.2009 -5,4 C 87 % 1026,2 hPa 0,0 l/m 4,1 km/h W 0,15 h 0,0 UV-I 40 W/m 9,6 km/h
04.01.2009 -1,5 C 97 % 1016,3 hPa 0,0 l/m 9,9 km/h W 0,00 h 0,0 UV-I 34 W/m 26,1 km/h
05.01.2009 -6,3 C 89 % 1022,6 hPa 0,0 l/m 4,6 km/h N-NO 0,42 h 0,0 UV-I 55 W/m 10,4 km/h
06.01.2009 -12,5 C 85 % 1025,1 hPa 0,8 l/m 0,8 km/h NO 4,08 h 0,0 UV-I 156 W/m 3,6 km/h
07.01.2009 -7,2 C 95 % 1024,4 hPa 0,8 l/m 0,9 km/h S 0,00 h 0,0 UV-I 23 W/m 3,2 km/h
08.01.2009 -8,8 C 92 % 1031,7 hPa 0,0 l/m 2,2 km/h S 3,25 h 0,0 UV-I 112 W/m 4,4 km/h
09.01.2009 -8,1 C 91 % 1031,4 hPa 1,8 l/m 0,2 km/h S 3,17 h 0,0 UV-I 119 W/m 2,4 km/h
10.01.2009 -5,2 C 64 % 1029,7 hPa 0,0 l/m 5,8 km/h S 3,58 h 0,6 UV-I 114 W/m 10,0 km/h
11.01.2009 -8,2 C 82 % 1031,1 hPa 0,0 l/m 5,8 km/h S-SO 4,08 h 0,6 UV-I 119 W/m 8,0 km/h
12.01.2009 -3,1 C 74 % 1021,8 hPa 0,0 l/m 13,1 km/h S 3,08 h 0,7 UV-I 111 W/m 21,4 km/h
13.01.2009 0,2 C 83 % 1014,6 hPa 0,2 l/m 7,7 km/h S 0,00 h 0,0 UV-I 42 W/m 11,3 km/h
14.01.2009 1,4 C 97 % 1015,8 hPa 6,0 l/m 2,3 km/h S 0,00 h 0,0 UV-I 31 W/m 5,2 km/h
15.01.2009 -0,5 C 94 % 1022,6 hPa 2,6 l/m 0,6 km/h S 1,08 h 0,6 UV-I 85 W/m 2,0 km/h
16.01.2009 -1,6 C 92 % 1022,0 hPa 0,0 l/m 17,0 km/h S-SO 1,67 h 0,6 UV-I 101 W/m 25,3 km/h
17.01.2009 1,6 C 94 % 1016,1 hPa 0,8 l/m 7,3 km/h S 0,75 h 0,5 UV-I 81 W/m 11,3 km/h
18.01.2009 2,6 C 92 % 1001,3 hPa 2,8 l/m 17,1 km/h S 0,00 h 0,5 UV-I 41 W/m 36,6 km/h
19.01.2009 2,6 C 93 % 991,4 hPa 0,4 l/m 24,3 km/h S-SO 0,33 h 0,0 UV-I 39 W/m 38,6 km/h
20.01.2009 0,3 C 90 % 998,9 hPa 0,8 l/m 4,6 km/h S 2,75 h 0,6 UV-I 107 W/m 8,8 km/h
21.01.2009 -1,0 C 90 % 1008,3 hPa 0,2 l/m 0,4 km/h S 2,83 h 0,5 UV-I 120 W/m 2,4 km/h
22.01.2009 1,1 C 88 % 998,8 hPa 1,0 l/m 23,0 km/h S-SO 1,58 h 0,5 UV-I 106 W/m 31,3 km/h
23.01.2009 1,5 C 94 % 974,6 hPa 14,6 l/m 15,3 km/h S-SO 0,00 h 0,0 UV-I 25 W/m 25,4 km/h
24.01.2009 2,1 C 95 % 990,8 hPa 1,2 l/m 4,3 km/h SW 0,00 h 0,5 UV-I 35 W/m 11,7 km/h
25.01.2009 0,4 C 90 % 1000,3 hPa 0,0 l/m 6,3 km/h S 5,33 h 0,6 UV-I 156 W/m 10,9 km/h
26.01.2009 -0,3 C 91 % 1005,5 hPa 0,2 l/m 4,9 km/h O-SO 5,33 h 0,6 UV-I 155 W/m 10,0 km/h
27.01.2009 -0,9 C 96 % 1016,1 hPa 0,0 l/m 2,2 km/h N-NO 0,00 h 0,0 UV-I 32 W/m 5,6 km/h
28.01.2009 -1,9 C 90 % 1020,7 hPa 0,0 l/m 2,6 km/h SO 4,60 h 0,7 UV-I 142 W/m 5,6 km/h
29.01.2009 -1,4 C 86 % 1023,9 hPa 0,0 l/m 15,5 km/h SO 4,08 h 0,7 UV-I 151 W/m 27,8 km/h
30.01.2009 -2,2 C 86 % 1025,0 hPa 0,0 l/m 9,4 km/h SO 7,00 h 0,7 UV-I 175 W/m 23,4 km/h
31.01.2009 -0,9 C 80 % 1021,0 hPa 0,0 l/m 6,0 km/h SO 0,00 h 0,5 UV-I 70 W/m 14,5 km/h
Min-Datum 07.01.09 10.01.09 23.01.09 15 Tage 01.01.09 - - - - 01.01.09
Min-Zeit 01:50 13:10 15:15 - 00:20 - - - - 00:20
Minimum -17,4 C 44 % 966,9 hPa - 0,0 km/h - - - - 0,0 km/h
Max-Datum 20.01.09 08.01.09 08.01.09 23.01.09 19.01.09 - 30.01.09 28.01.09 06.01.09 19.01.09
Max-Zeit 00:15 10:40 10:45 14:20 13:45 - 15:45 12:35 13:25 13:30
Maximum 4,8 C 100 % 1032,7 hPa 14,6 l/m 44,0 km/h
S-SO
- 6,92 h 1,0 UV-I 390 W/m 69,2 km/h
S-SO
Durchschnitt -2,3 C 89 % 1015,7 hPa #34,2 l/m 7,1 km/h S #59:10 h 0,6 UV-I 84 W/m 13,3 km/h

Durchschnitt Minimum Temp.-5,6 C
Durchschnitt Maximum Temp.0,6 C